Time;durP1;ratioP1;P1;durP2;ratioP2;P2;SDS_P1;SDS_P2;PMS_P1;PMS_P2;Temp;Humidity;BMP_temperature;BMP_pressure;BME280_temperature;BME280_humidity;BME280_pressure;Samples;Min_cycle;Max_cycle;Signal;HPM_P1;HPM_P2
2021/07/18 00:01:44;;;;;;;21.98;17.88;;;18.90;99.90;;;;;;4935205;29;20267;-47
2021/07/18 00:04:14;;;;;;;25.33;19.15;;;18.90;99.90;;;;;;4935039;29;20731;-48
2021/07/18 00:06:44;;;;;;;19.73;17.75;;;18.80;99.90;;;;;;4934926;29;20226;-47
2021/07/18 00:09:12;;;;;;;20.98;18.58;;;18.80;99.90;;;;;;4934741;29;20330;-50
2021/07/18 00:11:40;;;;;;;21.50;17.35;;;18.80;99.90;;;;;;4935269;29;20652;-49
2021/07/18 00:14:09;;;;;;;18.50;16.65;;;18.80;99.90;;;;;;4935002;29;20218;-51
2021/07/18 00:16:38;;;;;;;18.42;16.73;;;18.80;99.90;;;;;;4934874;29;20298;-49
2021/07/18 00:19:07;;;;;;;19.98;17.30;;;18.70;99.90;;;;;;4934876;29;20415;-48
2021/07/18 00:21:37;;;;;;;19.60;17.52;;;18.70;99.90;;;;;;4934919;29;20215;-48
2021/07/18 00:24:05;;;;;;;24.00;17.67;;;18.70;99.90;;;;;;4934678;29;20306;-50
2021/07/18 00:26:33;;;;;;;20.40;17.45;;;18.70;99.90;;;;;;4934824;29;20307;-46
2021/07/18 00:29:01;;;;;;;18.80;16.92;;;18.70;99.90;;;;;;4934587;29;20335;-48
2021/07/18 00:31:29;;;;;;;23.00;17.50;;;18.60;99.90;;;;;;4934673;29;20646;-47
2021/07/18 00:33:57;;;;;;;20.13;16.27;;;18.60;99.90;;;;;;4934854;29;20722;-47
2021/07/18 00:36:25;;;;;;;20.55;18.20;;;18.60;99.90;;;;;;4938846;29;20238;-48
2021/07/18 00:38:54;;;;;;;19.85;17.15;;;18.60;99.90;;;;;;4939003;29;20286;-47
2021/07/18 00:41:23;;;;;;;19.25;17.33;;;18.60;99.90;;;;;;4938870;29;20220;-52
2021/07/18 00:43:51;;;;;;;19.10;17.08;;;18.60;99.90;;;;;;4938719;29;20246;-51
2021/07/18 00:46:19;;;;;;;20.77;17.10;;;18.50;99.90;;;;;;4938506;29;20208;-50
2021/07/18 00:48:47;;;;;;;19.20;17.20;;;18.50;99.90;;;;;;4938553;29;20235;-51
2021/07/18 00:51:15;;;;;;;23.08;16.90;;;18.50;99.90;;;;;;4938427;29;20298;-51
2021/07/18 00:53:43;;;;;;;23.58;17.50;;;18.50;99.90;;;;;;4938700;29;20299;-49
2021/07/18 00:56:13;;;;;;;20.48;16.05;;;18.50;99.90;;;;;;4938750;29;20580;-49
2021/07/18 00:58:44;;;;;;;20.75;16.30;;;18.50;99.90;;;;;;4938414;29;20212;-52
2021/07/18 01:01:13;;;;;;;17.83;15.93;;;18.50;99.90;;;;;;4938347;29;20236;-48
2021/07/18 01:03:41;;;;;;;18.35;15.88;;;18.50;99.90;;;;;;4938273;29;20212;-50
2021/07/18 01:06:09;;;;;;;17.88;15.75;;;18.50;99.90;;;;;;4938514;29;20212;-50
2021/07/18 01:08:37;;;;;;;18.75;15.30;;;18.50;99.90;;;;;;4937994;29;20719;-49
2021/07/18 01:11:05;;;;;;;15.50;13.73;;;18.50;99.90;;;;;;4938325;29;20310;-52
2021/07/18 01:13:34;;;;;;;16.55;14.50;;;18.40;99.90;;;;;;4938191;29;20286;-47
2021/07/18 01:16:03;;;;;;;18.35;13.82;;;18.40;99.90;;;;;;4938029;29;20216;-51
2021/07/18 01:18:31;;;;;;;17.80;15.85;;;18.40;99.90;;;;;;4938326;29;20271;-49
2021/07/18 01:21:00;;;;;;;15.73;14.18;;;18.40;99.90;;;;;;4938078;29;20312;-47
2021/07/18 01:23:30;;;;;;;14.45;13.02;;;18.40;99.90;;;;;;4938082;29;20222;-48
2021/07/18 01:25:58;;;;;;;19.42;13.82;;;18.40;99.90;;;;;;4937977;29;20303;-49
2021/07/18 01:28:26;;;;;;;17.48;14.55;;;18.40;99.90;;;;;;4937812;29;20251;-47
2021/07/18 01:30:55;;;;;;;18.42;13.52;;;18.40;99.90;;;;;;4937673;29;20318;-53
2021/07/18 01:33:22;;;;;;;15.27;13.48;;;18.30;99.90;;;;;;4938069;29;20230;-52
2021/07/18 01:35:50;;;;;;;19.70;13.35;;;18.30;99.90;;;;;;4937867;29;20211;-51
2021/07/18 01:38:18;;;;;;;18.48;12.90;;;18.30;99.90;;;;;;4937940;29;20335;-52
2021/07/18 01:40:48;;;;;;;14.07;12.68;;;18.30;99.90;;;;;;4937636;29;20307;-49
2021/07/18 01:43:16;;;;;;;16.95;13.18;;;18.30;99.90;;;;;;4937503;29;20208;-50
2021/07/18 01:45:44;;;;;;;14.40;12.80;;;18.30;99.90;;;;;;4936896;29;20239;-51
2021/07/18 01:48:12;;;;;;;18.70;12.45;;;18.30;99.90;;;;;;4937299;29;20667;-51
2021/07/18 01:50:41;;;;;;;19.20;13.55;;;18.30;99.90;;;;;;4937539;29;20232;-49
2021/07/18 01:53:09;;;;;;;15.40;11.75;;;18.30;99.90;;;;;;4937545;29;20220;-46
2021/07/18 01:55:37;;;;;;;15.07;11.52;;;18.30;99.90;;;;;;4937424;29;20586;-48
2021/07/18 01:58:06;;;;;;;16.98;12.10;;;18.20;99.90;;;;;;4937277;29;20254;-48
2021/07/18 02:00:34;;;;;;;15.38;11.13;;;18.20;99.90;;;;;;4937496;29;20216;-47
2021/07/18 02:03:02;;;;;;;14.48;11.27;;;18.20;99.90;;;;;;4937437;29;20240;-51
2021/07/18 02:05:30;;;;;;;14.98;11.52;;;18.20;99.90;;;;;;4937280;29;20224;-47
2021/07/18 02:07:58;;;;;;;15.05;10.95;;;18.20;99.90;;;;;;4936652;29;20244;-52
2021/07/18 02:10:26;;;;;;;12.98;10.48;;;18.20;99.90;;;;;;4937055;29;20486;-46
2021/07/18 02:12:54;;;;;;;14.65;11.48;;;18.20;99.90;;;;;;4937137;29;20702;-46
2021/07/18 02:15:23;;;;;;;18.63;12.45;;;18.20;99.90;;;;;;4937365;29;20262;-45
2021/07/18 02:17:51;;;;;;;15.20;10.70;;;18.20;99.90;;;;;;4937108;29;20211;-47
2021/07/18 02:20:22;;;;;;;12.55;10.77;;;18.20;99.90;;;;;;4937110;29;20250;-49
2021/07/18 02:22:52;;;;;;;12.75;9.63;;;18.20;99.90;;;;;;4936942;29;20619;-46
2021/07/18 02:25:21;;;;;;;13.13;11.05;;;18.20;99.90;;;;;;4936856;29;20652;-48
2021/07/18 02:27:50;;;;;;;19.92;11.73;;;18.20;99.90;;;;;;4937031;29;20303;-48
2021/07/18 02:30:20;;;;;;;11.93;9.80;;;18.10;99.90;;;;;;4936643;29;20232;-48
2021/07/18 02:32:50;;;;;;;16.20;9.18;;;18.10;99.90;;;;;;4936846;29;20635;-47
2021/07/18 02:35:19;;;;;;;13.57;9.55;;;18.10;99.90;;;;;;4936737;29;20211;-46
2021/07/18 02:37:48;;;;;;;11.40;8.50;;;18.10;99.90;;;;;;4936643;29;20218;-47
2021/07/18 02:40:19;;;;;;;13.07;9.45;;;18.10;99.90;;;;;;4936682;29;20307;-47
2021/07/18 02:42:47;;;;;;;10.98;8.60;;;18.10;99.90;;;;;;4936616;29;20699;-51
2021/07/18 02:45:17;;;;;;;9.38;8.30;;;18.10;99.90;;;;;;4936668;29;20214;-52
2021/07/18 02:47:45;;;;;;;13.05;8.70;;;18.10;99.90;;;;;;4936450;29;20312;-47
2021/07/18 02:50:17;;;;;;;11.15;8.65;;;18.10;99.90;;;;;;4936619;29;20331;-53
2021/07/18 02:52:45;;;;;;;9.77;8.20;;;18.10;99.90;;;;;;4936390;29;20247;-49
2021/07/18 02:55:14;;;;;;;10.50;7.57;;;18.00;99.90;;;;;;4936382;29;20240;-51
2021/07/18 02:57:43;;;;;;;8.13;7.32;;;18.00;99.90;;;;;;4936123;29;20212;-53
2021/07/18 03:00:13;;;;;;;14.05;7.90;;;18.00;99.90;;;;;;4935951;29;20212;-50
2021/07/18 03:02:41;;;;;;;9.73;7.70;;;18.00;99.90;;;;;;4936216;29;20735;-53
2021/07/18 03:05:11;;;;;;;11.95;7.65;;;18.00;99.90;;;;;;4936284;29;20307;-47
2021/07/18 03:07:41;;;;;;;8.55;7.57;;;17.90;99.90;;;;;;4935900;29;20734;-49
2021/07/18 03:10:10;;;;;;;9.05;7.03;;;17.90;99.90;;;;;;4936120;29;20270;-48
2021/07/18 03:12:38;;;;;;;11.95;6.97;;;17.90;99.90;;;;;;4935995;29;20291;-52
2021/07/18 03:15:08;;;;;;;9.82;7.43;;;17.90;99.90;;;;;;4935984;29;20771;-51
2021/07/18 03:17:37;;;;;;;10.30;8.20;;;17.90;99.90;;;;;;4935897;29;20303;-50
2021/07/18 03:20:08;;;;;;;11.00;7.55;;;17.80;99.90;;;;;;4936041;29;20212;-52
2021/07/18 03:22:36;;;;;;;10.60;7.60;;;17.80;99.90;;;;;;4935985;29;20438;-49
2021/07/18 03:25:08;;;;;;;12.20;7.25;;;17.80;99.90;;;;;;4935871;29;20306;-49
2021/07/18 03:27:36;;;;;;;15.68;7.47;;;17.80;99.90;;;;;;4935741;29;20216;-51
2021/07/18 03:30:06;;;;;;;7.50;6.38;;;17.80;99.90;;;;;;4935845;29;20319;-51
2021/07/18 03:32:34;;;;;;;12.20;6.35;;;17.70;99.90;;;;;;4935874;29;20303;-50
2021/07/18 03:35:02;;;;;;;9.30;6.68;;;17.70;99.90;;;;;;4935614;29;20216;-49
2021/07/18 03:37:35;;;;;;;12.38;7.07;;;17.70;99.90;;;;;;4935609;29;20254;-50
2021/07/18 03:40:04;;;;;;;12.88;6.85;;;17.60;99.90;;;;;;4935521;29;20251;-51
2021/07/18 03:42:33;;;;;;;11.05;6.50;;;17.60;99.90;;;;;;4935603;29;20263;-49
2021/07/18 03:45:01;;;;;;;7.47;6.13;;;17.60;99.90;;;;;;4935468;29;20216;-51
2021/07/18 03:47:29;;;;;;;9.25;7.00;;;17.50;99.90;;;;;;4935292;29;20311;-51
2021/07/18 03:50:01;;;;;;;7.18;5.43;;;17.50;99.90;;;;;;4935330;29;20676;-50
2021/07/18 03:52:29;;;;;;;8.98;6.82;;;17.50;99.90;;;;;;4935319;29;20236;-48
2021/07/18 03:54:57;;;;;;;10.98;6.45;;;17.50;99.90;;;;;;4935368;29;20328;-50
2021/07/18 03:57:25;;;;;;;11.80;6.50;;;17.50;99.90;;;;;;4935395;29;20536;-49
2021/07/18 03:59:54;;;;;;;10.60;6.15;;;17.40;99.90;;;;;;4935355;29;20216;-47
2021/07/18 04:02:22;;;;;;;8.73;6.97;;;17.40;99.90;;;;;;4935100;29;20214;-47
2021/07/18 04:04:50;;;;;;;8.55;7.00;;;17.40;99.90;;;;;;4934998;29;20582;-47
2021/07/18 04:07:18;;;;;;;10.65;6.22;;;17.40;99.90;;;;;;4935097;29;20236;-46
2021/07/18 04:09:46;;;;;;;12.65;6.70;;;17.40;99.90;;;;;;4934737;29;20607;-47
2021/07/18 04:12:14;;;;;;;8.73;6.30;;;17.40;99.90;;;;;;4935061;29;20659;-49
2021/07/18 04:14:42;;;;;;;11.88;6.72;;;17.40;99.90;;;;;;4935137;29;20299;-47
2021/07/18 04:17:11;;;;;;;9.90;6.35;;;17.40;99.90;;;;;;4935080;29;20243;-51
2021/07/18 04:19:39;;;;;;;9.35;6.07;;;17.30;99.90;;;;;;4935202;29;20207;-49
2021/07/18 04:22:07;;;;;;;7.45;5.38;;;17.30;99.90;;;;;;4934848;29;20305;-49
2021/07/18 04:24:35;;;;;;;14.00;6.18;;;17.30;99.90;;;;;;4934993;29;20216;-47
2021/07/18 04:27:03;;;;;;;10.48;5.85;;;17.30;99.90;;;;;;4934995;29;20262;-53
2021/07/18 04:29:31;;;;;;;9.60;6.43;;;17.30;99.90;;;;;;4934939;29;20303;-51
2021/07/18 04:31:59;;;;;;;9.85;6.07;;;17.20;99.90;;;;;;4934725;29;20267;-52
2021/07/18 04:34:29;;;;;;;9.82;5.93;;;17.20;99.90;;;;;;4935064;29;20335;-49
2021/07/18 04:36:58;;;;;;;7.10;5.22;;;17.20;99.90;;;;;;4934912;29;20216;-48
2021/07/18 04:39:26;;;;;;;9.77;5.45;;;17.20;99.90;;;;;;4934730;29;20703;-46
2021/07/18 04:41:54;;;;;;;11.75;6.00;;;17.20;99.90;;;;;;4934774;29;20300;-48
2021/07/18 04:44:22;;;;;;;8.20;4.90;;;17.20;99.90;;;;;;4934620;29;20655;-47
2021/07/18 04:46:54;;;;;;;12.90;6.00;;;17.20;99.90;;;;;;4935000;29;20604;-47
2021/07/18 04:49:22;;;;;;;8.98;5.72;;;17.20;99.90;;;;;;4934495;29;20218;-51
2021/07/18 04:51:52;;;;;;;13.23;5.40;;;17.20;99.90;;;;;;4934444;29;20541;-50
2021/07/18 04:54:20;;;;;;;7.28;5.47;;;17.10;99.90;;;;;;4934601;29;20672;-48
2021/07/18 04:56:48;;;;;;;9.85;5.40;;;17.10;99.90;;;;;;4934699;29;20208;-47
2021/07/18 04:59:16;;;;;;;9.35;4.93;;;17.10;99.90;;;;;;4934624;29;20637;-48
2021/07/18 05:01:44;;;;;;;15.02;5.18;;;17.10;99.90;;;;;;4934996;29;20212;-48
2021/07/18 05:04:12;;;;;;;10.63;5.00;;;17.10;99.90;;;;;;4934407;29;20212;-47
2021/07/18 05:06:40;;;;;;;6.97;4.35;;;17.10;99.90;;;;;;4934621;29;20219;-45
2021/07/18 05:09:09;;;;;;;6.13;4.38;;;17.10;99.90;;;;;;4934456;29;20678;-48
2021/07/18 05:11:38;;;;;;;7.45;4.53;;;17.10;99.90;;;;;;4934319;29;20322;-51
2021/07/18 05:14:05;;;;;;;9.18;5.13;;;17.10;99.90;;;;;;4934731;29;20636;-49
2021/07/18 05:16:33;;;;;;;5.68;4.00;;;17.10;99.90;;;;;;4934690;29;20648;-48
2021/07/18 05:19:01;;;;;;;9.32;4.47;;;17.00;99.90;;;;;;4934454;29;20212;-46
2021/07/18 05:21:29;;;;;;;6.18;4.30;;;17.00;99.90;;;;;;4936909;29;20212;-47
2021/07/18 05:23:57;;;;;;;7.25;4.07;;;17.00;99.90;;;;;;4938368;29;20833;-48
2021/07/18 05:26:26;;;;;;;6.20;4.25;;;16.90;99.90;;;;;;4937900;29;20307;-46
2021/07/18 05:28:54;;;;;;;6.65;4.13;;;16.90;99.90;;;;;;4937804;29;20748;-47
2021/07/18 05:31:22;;;;;;;9.02;4.40;;;16.90;99.90;;;;;;4937921;29;20331;-47
2021/07/18 05:33:50;;;;;;;5.60;3.95;;;16.90;99.90;;;;;;4937867;29;20286;-50
2021/07/18 05:36:18;;;;;;;6.47;4.35;;;16.90;99.90;;;;;;4937761;29;20212;-49
2021/07/18 05:38:46;;;;;;;9.20;4.30;;;16.90;99.90;;;;;;4937602;29;20311;-49
2021/07/18 05:41:14;;;;;;;6.28;4.07;;;16.90;99.90;;;;;;4937793;29;20214;-51
2021/07/18 05:43:43;;;;;;;6.10;3.60;;;16.90;99.90;;;;;;4937673;29;20734;-47
2021/07/18 05:46:11;;;;;;;7.05;4.13;;;16.90;99.90;;;;;;4937615;29;20220;-47
2021/07/18 05:48:38;;;;;;;7.85;3.70;;;16.90;99.90;;;;;;4937566;29;20306;-48
2021/07/18 05:51:06;;;;;;;7.57;3.85;;;16.90;99.90;;;;;;4937369;29;20216;-50
2021/07/18 05:53:34;;;;;;;6.35;3.88;;;16.90;99.90;;;;;;4937671;29;20307;-51
2021/07/18 05:56:02;;;;;;;7.32;4.78;;;17.00;99.90;;;;;;4937406;29;20307;-51
2021/07/18 05:58:30;;;;;;;9.48;4.20;;;17.00;99.90;;;;;;4937328;29;20392;-49
2021/07/18 06:01:00;;;;;;;7.43;3.63;;;17.10;99.90;;;;;;4937306;29;20653;-47
2021/07/18 06:03:28;;;;;;;6.57;3.50;;;17.10;99.90;;;;;;4937285;29;20212;-50
2021/07/18 06:05:56;;;;;;;9.38;3.60;;;17.20;99.90;;;;;;4937312;29;20335;-47
2021/07/18 06:08:24;;;;;;;9.18;4.45;;;17.30;99.90;;;;;;4937223;29;20275;-47
2021/07/18 06:10:52;;;;;;;5.30;4.05;;;17.40;99.90;;;;;;4937114;29;20306;-50
2021/07/18 06:13:20;;;;;;;5.97;3.70;;;17.50;99.90;;;;;;4937099;29;20308;-48
2021/07/18 06:15:48;;;;;;;7.88;3.67;;;17.60;99.90;;;;;;4937119;29;20380;-54
2021/07/18 06:18:17;;;;;;;4.30;3.13;;;17.70;99.90;;;;;;4936970;29;20212;-45
2021/07/18 06:20:45;;;;;;;5.90;3.65;;;17.70;99.90;;;;;;4937232;29;20307;-46
2021/07/18 06:23:13;;;;;;;7.05;4.03;;;17.80;99.90;;;;;;4937110;29;20208;-47
2021/07/18 06:26:00;;;;;;;8.63;4.30;;;17.80;99.90;;;;;;4936738;29;20243;-49
2021/07/18 06:28:28;;;;;;;6.32;3.45;;;17.80;99.90;;;;;;4936646;29;20308;-47
2021/07/18 06:30:56;;;;;;;7.85;4.07;;;17.90;99.90;;;;;;4936963;29;20313;-45
2021/07/18 06:33:26;;;;;;;8.30;4.30;;;17.90;99.90;;;;;;4937095;29;20251;-47
2021/07/18 06:35:55;;;;;;;6.47;3.47;;;17.90;99.90;;;;;;4936893;29;20310;-46
2021/07/18 06:38:23;;;;;;;4.50;3.05;;;17.90;99.90;;;;;;4936826;29;20576;-49
2021/07/18 06:40:50;;;;;;;6.20;3.35;;;17.90;99.90;;;;;;4936753;29;20219;-47
2021/07/18 06:43:19;;;;;;;6.30;3.35;;;18.00;99.90;;;;;;4936475;29;20311;-51
2021/07/18 06:45:46;;;;;;;11.40;3.72;;;18.00;99.90;;;;;;4936716;29;20295;-46
2021/07/18 06:48:14;;;;;;;4.15;3.75;;;18.10;99.90;;;;;;4936493;29;20238;-50
2021/07/18 06:50:44;;;;;;;8.45;4.35;;;18.10;99.90;;;;;;4936377;29;20258;-51
2021/07/18 06:53:12;;;;;;;6.10;3.90;;;18.10;99.90;;;;;;4936249;29;20601;-46
2021/07/18 06:55:40;;;;;;;7.70;3.50;;;18.30;99.90;;;;;;4935949;29;20208;-47
2021/07/18 06:58:08;;;;;;;5.88;4.15;;;18.50;99.90;;;;;;4936237;29;20299;-47
2021/07/18 07:00:36;;;;;;;6.07;4.18;;;18.70;99.90;;;;;;4936165;29;20222;-46
2021/07/18 07:03:04;;;;;;;5.32;3.75;;;19.00;99.90;;;;;;4936202;29;20211;-45
2021/07/18 07:05:32;;;;;;;6.82;3.78;;;19.10;99.90;;;;;;4936056;29;20303;-45
2021/07/18 07:08:02;;;;;;;8.88;4.00;;;19.10;99.90;;;;;;4935977;29;20342;-46
2021/07/18 07:10:30;;;;;;;8.35;4.30;;;19.00;99.90;;;;;;4935802;29;20212;-46
2021/07/18 07:12:58;;;;;;;8.90;4.28;;;19.00;99.90;;;;;;4935765;29;20331;-47
2021/07/18 07:15:26;;;;;;;6.03;4.30;;;19.10;99.90;;;;;;4935746;29;20208;-49
2021/07/18 07:17:54;;;;;;;7.28;3.25;;;19.10;99.90;;;;;;4935700;29;20251;-49
2021/07/18 07:20:22;;;;;;;6.38;3.85;;;19.20;99.90;;;;;;4935823;29;20617;-47
2021/07/18 07:22:50;;;;;;;7.28;4.22;;;19.30;99.90;;;;;;4935658;29;20214;-47
2021/07/18 07:25:19;;;;;;;6.22;3.70;;;19.40;99.90;;;;;;4935882;29;20216;-53
2021/07/18 07:27:47;;;;;;;4.95;3.80;;;19.50;99.90;;;;;;4935599;29;20223;-52
2021/07/18 07:30:16;;;;;;;5.30;3.97;;;19.70;99.90;;;;;;4935551;29;20786;-50
2021/07/18 07:32:44;;;;;;;4.55;3.33;;;20.00;99.90;;;;;;4935829;29;20311;-51
2021/07/18 07:35:13;;;;;;;10.43;3.97;;;20.20;99.90;;;;;;4935575;29;20212;-48
2021/07/18 07:37:42;;;;;;;6.60;3.65;;;20.50;99.90;;;;;;4935485;29;20216;-49
2021/07/18 07:40:13;;;;;;;7.10;3.50;;;20.60;99.90;;;;;;4935599;29;20626;-52
2021/07/18 07:42:43;;;;;;;8.65;4.53;;;20.70;99.90;;;;;;4935298;29;20688;-50
2021/07/18 07:45:12;;;;;;;6.43;3.47;;;20.80;99.90;;;;;;4934457;29;20668;-51
2021/07/18 07:47:41;;;;;;;6.78;3.50;;;20.80;99.90;;;;;;4935072;29;20252;-52
2021/07/18 07:50:11;;;;;;;7.43;3.47;;;20.80;99.90;;;;;;4935214;29;20312;-52
2021/07/18 07:52:39;;;;;;;6.03;3.85;;;20.70;99.90;;;;;;4935316;29;20228;-49
2021/07/18 07:55:09;;;;;;;7.50;4.28;;;20.70;99.90;;;;;;4935116;29;20247;-53
2021/07/18 07:57:37;;;;;;;6.68;4.10;;;20.70;99.90;;;;;;4935005;29;20240;-48
2021/07/18 08:00:10;;;;;;;5.20;3.90;;;20.80;99.90;;;;;;4935154;29;20234;-48
2021/07/18 08:02:39;;;;;;;5.03;3.90;;;20.90;99.90;;;;;;4935445;29;20303;-50
2021/07/18 08:05:09;;;;;;;9.60;4.75;;;21.00;99.90;;;;;;4934944;29;20665;-46
2021/07/18 08:07:37;;;;;;;7.05;4.82;;;21.10;99.90;;;;;;4934824;29;20331;-51
2021/07/18 08:10:08;;;;;;;6.53;4.82;;;21.30;99.90;;;;;;4934810;29;20248;-48
2021/07/18 08:12:36;;;;;;;9.52;4.75;;;21.40;99.90;;;;;;4934791;29;20255;-52
2021/07/18 08:15:05;;;;;;;5.93;4.30;;;21.60;99.90;;;;;;4934672;29;20234;-47
2021/07/18 08:17:35;;;;;;;7.40;4.28;;;21.80;99.90;;;;;;4935093;29;20695;-49
2021/07/18 08:20:06;;;;;;;8.95;4.40;;;21.80;99.90;;;;;;4936828;29;20244;-48
2021/07/18 08:22:34;;;;;;;5.97;4.93;;;21.70;99.90;;;;;;4935393;29;20239;-53
2021/07/18 08:25:03;;;;;;;7.85;5.18;;;21.70;99.90;;;;;;4934871;29;20219;-53
2021/07/18 08:27:34;;;;;;;10.45;6.05;;;21.70;99.90;;;;;;4934634;29;20223;-51
2021/07/18 08:30:04;;;;;;;6.30;5.70;;;21.90;99.90;;;;;;4934928;29;20234;-49
2021/07/18 08:32:34;;;;;;;8.57;5.75;;;22.00;99.90;;;;;;4934680;29;20235;-50
2021/07/18 08:35:03;;;;;;;7.75;5.38;;;22.10;99.90;;;;;;4934749;29;20307;-49
2021/07/18 08:37:31;;;;;;;7.32;6.63;;;22.30;99.90;;;;;;4934718;29;20222;-50
2021/07/18 08:40:00;;;;;;;7.10;6.40;;;22.60;99.90;;;;;;4934632;29;20516;-50
2021/07/18 08:42:28;;;;;;;9.60;6.30;;;22.80;99.90;;;;;;4934550;29;20212;-51
2021/07/18 08:44:58;;;;;;;12.13;7.15;;;23.00;99.90;;;;;;4934671;29;20231;-47
2021/07/18 08:47:26;;;;;;;10.05;6.38;;;23.10;99.90;;;;;;4934284;29;20215;-47
2021/07/18 08:49:55;;;;;;;8.57;7.57;;;23.30;99.90;;;;;;4934680;29;20216;-49
2021/07/18 08:52:25;;;;;;;7.93;6.82;;;23.40;99.90;;;;;;4934327;29;20279;-52
2021/07/18 08:54:54;;;;;;;9.18;8.00;;;23.40;99.90;;;;;;4934171;29;20721;-50
2021/07/18 08:57:24;;;;;;;10.02;7.38;;;23.70;99.90;;;;;;4938946;29;20219;-48
2021/07/18 08:59:52;;;;;;;11.07;9.20;;;24.00;99.90;;;;;;4937951;29;20763;-52
2021/07/18 09:02:21;;;;;;;9.02;8.00;;;24.20;99.90;;;;;;4937874;29;20216;-49
2021/07/18 09:04:49;;;;;;;8.75;7.95;;;24.40;99.90;;;;;;4937986;29;20210;-50
2021/07/18 09:07:19;;;;;;;10.07;8.88;;;24.70;99.90;;;;;;4938318;29;20252;-48
2021/07/18 09:09:48;;;;;;;10.30;9.30;;;24.90;99.90;;;;;;4938181;29;20216;-48
2021/07/18 09:12:19;;;;;;;10.93;8.63;;;25.00;99.90;;;;;;4938368;29;20270;-51
2021/07/18 09:14:49;;;;;;;9.82;8.93;;;24.90;99.90;;;;;;4938094;29;20700;-52
2021/07/18 09:17:20;;;;;;;10.32;9.40;;;24.80;99.90;;;;;;4938025;29;20637;-50
2021/07/18 09:19:49;;;;;;;11.55;9.80;;;24.60;99.90;;;;;;4937877;29;20664;-51
2021/07/18 09:22:21;;;;;;;9.57;8.68;;;24.40;99.90;;;;;;4938065;29;20216;-46
2021/07/18 09:24:51;;;;;;;10.25;9.27;;;24.30;99.90;;;;;;4938096;29;20559;-49
2021/07/18 09:27:22;;;;;;;13.35;11.77;;;24.30;99.90;;;;;;4937838;29;20218;-52
2021/07/18 09:29:52;;;;;;;11.82;10.38;;;24.30;99.90;;;;;;4937807;29;20306;-50
2021/07/18 09:32:21;;;;;;;9.65;8.75;;;24.30;99.90;;;;;;4937652;29;20669;-50
2021/07/18 09:34:51;;;;;;;10.25;9.18;;;24.30;99.90;;;;;;4937036;29;20280;-51
2021/07/18 09:37:22;;;;;;;11.50;8.98;;;24.30;99.90;;;;;;4937461;29;20302;-50
2021/07/18 09:39:57;;;;;;;11.45;10.35;;;24.30;99.90;;;;;;4937625;29;20212;-51
2021/07/18 09:42:31;;;;;;;12.27;10.90;;;24.30;99.90;;;;;;4937330;29;20203;-52
2021/07/18 09:45:00;;;;;;;13.90;11.60;;;24.20;99.90;;;;;;4937303;29;20218;-51
2021/07/18 09:47:28;;;;;;;14.32;12.85;;;24.10;99.90;;;;;;4937153;29;20723;-51
2021/07/18 09:49:56;;;;;;;14.65;13.25;;;24.20;99.90;;;;;;4937168;29;20216;-53
2021/07/18 09:52:27;;;;;;;15.57;13.18;;;24.30;99.90;;;;;;4937316;29;20216;-50
2021/07/18 09:54:57;;;;;;;14.23;12.82;;;24.30;99.90;;;;;;4937097;29;20590;-55
2021/07/18 09:57:34;;;;;;;11.07;9.73;;;24.40;99.90;;;;;;4937540;29;20614;-54
2021/07/18 10:00:06;;;;;;;9.75;8.85;;;24.70;99.90;;;;;;4937186;29;20226;-48
2021/07/18 10:02:35;;;;;;;9.95;8.95;;;24.80;99.90;;;;;;4936611;29;20340;-53
2021/07/18 10:05:04;;;;;;;12.10;9.45;;;24.90;99.90;;;;;;4936629;29;20208;-52
2021/07/18 10:07:35;;;;;;;11.02;9.82;;;24.90;99.90;;;;;;4936253;29;20279;-49
2021/07/18 10:10:07;;;;;;;10.43;9.30;;;24.80;99.90;;;;;;4936919;29;20623;-50
2021/07/18 10:12:35;;;;;;;11.75;10.55;;;24.60;99.90;;;;;;4937009;29;20214;-49
2021/07/18 10:15:05;;;;;;;12.88;11.57;;;24.60;99.90;;;;;;4936904;29;20232;-50
2021/07/18 10:17:32;;;;;;;13.18;9.98;;;24.40;99.90;;;;;;4937069;29;20638;-47
2021/07/18 10:20:01;;;;;;;11.55;10.45;;;24.30;99.90;;;;;;4936798;29;20314;-48
2021/07/18 10:22:29;;;;;;;12.13;10.70;;;24.30;99.90;;;;;;4937159;29;20215;-52
2021/07/18 10:24:59;;;;;;;12.20;11.05;;;24.50;99.90;;;;;;4936814;29;20254;-51
2021/07/18 10:27:27;;;;;;;12.60;10.75;;;24.60;99.90;;;;;;4937860;29;20216;-48
2021/07/18 10:29:56;;;;;;;11.65;10.55;;;24.70;99.90;;;;;;4937110;29;20639;-48
2021/07/18 10:32:25;;;;;;;11.05;9.95;;;24.70;99.90;;;;;;4936882;29;20256;-48
2021/07/18 10:34:55;;;;;;;10.93;9.70;;;24.70;99.90;;;;;;4937058;29;20239;-52
2021/07/18 10:37:24;;;;;;;10.63;9.73;;;24.70;99.90;;;;;;4936898;29;20322;-47
2021/07/18 10:39:55;;;;;;;12.27;11.05;;;24.90;99.90;;;;;;4936768;29;20208;-52
2021/07/18 10:42:34;;;;;;;13.02;10.30;;;24.90;99.90;;;;;;4936893;29;20250;-54
2021/07/18 10:45:26;;;;;;;13.13;10.25;;;24.90;99.90;;;;;;4936525;29;20211;-50
2021/07/18 10:48:03;;;;;;;10.07;9.10;;;24.70;99.90;;;;;;4936501;29;20339;-51
2021/07/18 10:50:51;;;;;;;14.15;10.60;;;24.60;99.90;;;;;;4936664;29;20295;-46
2021/07/18 10:53:21;;;;;;;10.57;9.65;;;24.60;99.90;;;;;;4936501;29;20247;-52
2021/07/18 10:55:51;;;;;;;12.32;10.43;;;24.50;99.90;;;;;;4936209;29;20232;-53
2021/07/18 10:58:46;;;;;;;20.02;11.45;;;24.50;99.90;;;;;;4936574;29;20219;-52
2021/07/18 11:01:44;;;;;;;11.43;10.30;;;24.40;99.90;;;;;;4936457;29;20303;-50
2021/07/18 11:04:41;;;;;;;12.23;10.98;;;24.30;99.90;;;;;;4936989;29;20302;-48
2021/07/18 11:07:34;;;;;;;12.90;11.60;;;24.40;99.90;;;;;;4936148;29;20304;-48
2021/07/18 11:10:15;;;;;;;11.95;10.95;;;24.60;99.90;;;;;;4936271;29;20219;-54
2021/07/18 11:12:46;;;;;;;12.60;11.48;;;24.80;99.90;;;;;;4936442;29;20228;-49
2021/07/18 11:15:32;;;;;;;12.30;11.07;;;24.80;99.90;;;;;;4936124;29;20240;-50
2021/07/18 11:18:03;;;;;;;13.27;11.88;;;24.70;99.90;;;;;;4936338;29;20639;-53
2021/07/18 11:20:54;;;;;;;13.35;12.05;;;24.70;99.90;;;;;;4936068;29;20635;-50
2021/07/18 11:23:37;;;;;;;15.30;12.43;;;24.90;99.90;;;;;;4933618;29;20248;-51
2021/07/18 11:26:15;;;;;;;14.75;13.20;;;25.00;99.90;;;;;;4935880;29;20227;-52
2021/07/18 11:29:01;;;;;;;14.63;13.18;;;25.10;99.90;;;;;;4935722;29;20291;-53
2021/07/18 11:31:42;;;;;;;14.70;13.35;;;25.00;99.90;;;;;;4935720;29;20212;-53
2021/07/18 11:34:14;;;;;;;13.95;12.65;;;24.90;99.90;;;;;;4935657;29;20247;-52
2021/07/18 11:37:05;;;;;;;14.02;12.73;;;24.90;99.90;;;;;;4935713;29;20628;-52
2021/07/18 11:39:35;;;;;;;14.57;13.25;;;25.20;99.90;;;;;;4935884;29;20291;-53
2021/07/18 11:42:08;;;;;;;13.00;11.80;;;25.50;99.90;;;;;;4935829;29;20361;-51
2021/07/18 11:44:39;;;;;;;13.57;12.20;;;25.70;99.90;;;;;;4935749;29;20262;-49
2021/07/18 11:47:12;;;;;;;15.52;14.20;;;25.70;99.90;;;;;;4935837;29;20214;-51
2021/07/18 11:49:43;;;;;;;15.57;14.05;;;25.50;99.90;;;;;;4935324;29;20216;-51
2021/07/18 11:52:12;;;;;;;14.93;13.63;;;25.40;99.90;;;;;;4935768;29;20310;-48
2021/07/18 11:54:41;;;;;;;15.38;13.82;;;25.40;99.90;;;;;;4935416;29;20718;-53
2021/07/18 11:57:11;;;;;;;14.85;13.40;;;25.60;99.90;;;;;;4935787;29;20220;-50
2021/07/18 11:59:41;;;;;;;13.50;11.88;;;25.80;99.90;;;;;;4935475;29;20242;-54
2021/07/18 12:02:12;;;;;;;13.63;12.23;;;25.80;99.90;;;;;;4935266;29;20267;-50
2021/07/18 12:04:41;;;;;;;15.30;13.77;;;25.70;99.90;;;;;;4935466;29;20208;-54
2021/07/18 12:07:11;;;;;;;14.25;12.75;;;25.60;99.90;;;;;;4935663;29;20212;-50
2021/07/18 12:09:43;;;;;;;12.68;11.57;;;25.60;99.90;;;;;;4936763;29;20755;-49
2021/07/18 12:12:13;;;;;;;12.80;11.70;;;25.40;99.90;;;;;;4935167;29;20292;-50
2021/07/18 12:14:41;;;;;;;13.05;11.77;;;25.20;99.90;;;;;;4935528;29;20204;-48
2021/07/18 12:17:13;;;;;;;20.05;18.10;;;25.10;99.90;;;;;;4935384;29;20290;-53
2021/07/18 12:19:42;;;;;;;10.85;9.85;;;25.10;99.90;;;;;;4935179;29;20243;-52
2021/07/18 12:22:12;;;;;;;13.70;10.95;;;25.40;99.90;;;;;;4935211;29;20208;-49
2021/07/18 12:24:43;;;;;;;11.20;10.20;;;25.50;99.90;;;;;;4934981;29;20307;-48
2021/07/18 12:27:14;;;;;;;10.77;9.68;;;25.40;99.80;;;;;;4934926;29;20263;-51
2021/07/18 12:29:47;;;;;;;11.35;10.27;;;25.30;99.90;;;;;;4934520;29;20240;-49
2021/07/18 12:32:18;;;;;;;10.15;9.25;;;25.20;99.90;;;;;;4934816;29;20226;-48
2021/07/18 12:34:48;;;;;;;11.95;10.88;;;25.10;99.90;;;;;;4934797;29;20248;-46
2021/07/18 12:37:19;;;;;;;11.55;10.52;;;25.10;99.90;;;;;;4934790;29;20374;-49
2021/07/18 12:39:48;;;;;;;10.80;9.73;;;25.00;99.90;;;;;;4934752;29;20566;-47
2021/07/18 12:42:21;;;;;;;12.23;9.52;;;25.10;99.80;;;;;;4934834;29;20327;-53
2021/07/18 12:44:51;;;;;;;11.40;10.25;;;25.10;99.40;;;;;;4934886;29;20251;-49
2021/07/18 12:47:27;;;;;;;10.88;9.55;;;25.20;99.30;;;;;;4934789;29;20291;-51
2021/07/18 12:50:13;;;;;;;8.77;7.75;;;25.40;99.00;;;;;;4934551;29;20694;-48
2021/07/18 12:52:52;;;;;;;10.25;9.07;;;25.30;98.70;;;;;;4934617;29;20275;-50